• Join FlightAware (Why Join?)
  • Login
  • US Flag 
07:00AM EDT


 

Airport Tracker/Info


-or-


 

Live Flight TrackerFlight Track Log ✈ EJA102 ✈ 10-Aug-2013 ✈ KMVY - KALB

Flight Track Log - Related Links

Times and Time Zones

All times are in EDT time to prevent confusion due to time zone crossing. See the EJA102 flight status page for this flight to view local times or setup timezone preferences in your user account.

Time Position Orientation Groundspeed Altitude Reporting Facility
EDT Latitude Longitude Course Direction KTS MPH feet Rate Location/Type
02:02PM 41.2636 -70.8411 304° West 230 265 9,800  Level Boston Center
02:03PM 41.3622 -70.8831 342° North 267 307 10,700 1,140 Climbing Boston Center
02:04PM 41.4442 -70.9419 332° Northwest 299 344 12,400 1,500 Climbing Boston Center
02:05PM 41.6304 -71.1931 300° West  Level FlightAware Approximate
02:05PM 41.4933 -71.0267 308° West 307 353 13,800  Level Boston Center
02:06PM 41.6710 -71.2963 294° West  Level FlightAware Approximate
02:06PM 41.5508 -71.1281 307° West 317 365 15,400  Level Boston Center
02:07PM 41.7089 -71.4012 304° West  Level FlightAware Approximate
02:07PM 41.6017 -71.2131 309° West 327 376 16,000  Level Boston Center
02:08PM 41.6675 -71.3286 307° West 347 399 16,000  Level Boston Center
02:09PM 41.7247 -71.4275 308° West 368 423 16,000  Level Boston Center
02:10PM 41.7925 -71.5492 307° West 373 429 16,000  Level Boston Center
02:11PM 41.8517 -71.6542 307° West 368 423 16,000  Level Boston Center
02:12PM 41.8961 -71.7736 297° West 356 410 16,000  Level Boston Center
02:13PM 41.9386 -71.8903 296° West 351 404 16,000  Level Boston Center
02:14PM 41.9722 -71.9989 293° West 349 402 16,000 -120 Level Boston Center
02:15PM 42.0164 -72.1272 295° West 349 402 15,800 -1,020 Descending Boston Center
02:16PM 42.0522 -72.2361 294° West 355 409 14,100 -1,860 Descending Boston Center
02:17PM 42.0981 -72.3644 296° West 355 409 12,100 -1,920 Descending Boston Center
02:18PM 42.1317 -72.4653 294° West 339 390 10,300 -1,860 Descending Boston Center
02:19PM 42.1647 -72.5689 293° West 289 333 8,400 -1,200 Descending Boston Center
02:20PM 42.1897 -72.6447 294° West 257 296 8,000 -240 Descending Boston Center
02:21PM 42.2186 -72.7289 295° West 251 289 8,000  Level Boston Center
02:21PM 42.2331 -72.7794 291° West 245 282 8,000  Level Boston Center
02:22PM 42.2497 -72.8214 298° West 251 289 8,000  Level Boston Center
02:23PM 42.2744 -72.8947 295° West 251 289 8,000  Level Boston Center
02:24PM 42.3094 -72.9819 299° West 245 282 8,000  Level Boston Center
02:25PM 42.3528 -73.0694 304° West 244 281 8,100  Climbing Boston Center
02:26PM 42.3900 -73.1344 308° West 251 289 8,000 -60 Descending Boston Center
02:27PM 42.4250 -73.1994 306° West 251 289 8,000 -960 Level Boston Center
02:28PM 42.4722 -73.2844 307° West 251 289 6,100 -1,740 Descending Boston Center
02:29PM 42.5114 -73.3556 307° West 244 281 4,500 -1,080 Descending Boston Center
02:30PM 42.5483 -73.4264 305° West 238 274 4,000 -240 Descending Boston Center
02:31PM 42.5872 -73.5003 306° West 243 280 4,100 -60 Climbing Boston Center
02:32PM 42.6344 -73.5775 310° West 242 278 3,900 -360 Descending Boston Center
02:33PM 42.6778 -73.6233 322° Northwest 228 262 3,400 -780 Descending Boston Center
02:34PM 42.7189 -73.6639 324° Northwest 192 221 2,500 -960 Descending Boston Center
02:35PM 42.7433 -73.7094 306° West 165 190 1,500 -600 Descending Boston Center
02:36PM 42.7803 -73.7611 314° West 165 190 1,400 3,240 Descending Boston Center
02:37PM 42.8111 -73.8128 309° West 165 190 8,000 6,660 Climbing Boston Center
02:39PM 42.7491 -73.8020 North  Level Estimated
02:46PM 42.7491 -73.8020 North  Level Estimated
02:47PM 42.7491 -73.8020 North  Level Estimated